createdAt,value
2017-09-24T00:00:00.550Z,71.40
2017-09-24T00:02:27.232Z,71.10
2017-09-24T00:04:55.055Z,71.90
2017-09-24T00:07:22.624Z,71.90
2017-09-24T00:09:50.277Z,72.80
2017-09-24T00:12:17.790Z,72.70
2017-09-24T00:14:44.014Z,72.50
2017-09-24T00:17:11.502Z,73.30
2017-09-24T00:19:37.748Z,72.70
2017-09-24T00:22:04.385Z,72.00
2017-09-24T00:24:30.792Z,72.00
2017-09-24T00:26:57.117Z,74.80
2017-09-24T00:29:24.121Z,75.40
2017-09-24T00:31:51.169Z,76.00
2017-09-24T00:34:17.556Z,76.00
2017-09-24T00:36:43.860Z,74.70
2017-09-24T00:39:10.889Z,73.50
2017-09-24T00:41:38.169Z,73.40
2017-09-24T00:44:04.897Z,72.90
2017-09-24T00:46:32.288Z,73.00
2017-09-24T00:48:59.851Z,73.10
2017-09-24T00:51:26.620Z,73.00
2017-09-24T00:53:53.149Z,73.20
2017-09-24T00:56:20.281Z,73.00
2017-09-24T00:58:46.820Z,73.10
2017-09-24T01:01:13.901Z,73.10
2017-09-24T01:03:41.531Z,73.10
2017-09-24T01:06:07.820Z,72.80
2017-09-24T01:08:35.159Z,72.10
2017-09-24T01:11:03.146Z,72.40
2017-09-24T01:13:30.481Z,72.10
2017-09-24T01:15:57.477Z,72.10
2017-09-24T01:18:24.233Z,72.10
2017-09-24T01:20:50.478Z,72.40
2017-09-24T01:23:16.794Z,72.70
2017-09-24T01:25:43.793Z,72.60
2017-09-24T01:28:10.100Z,72.50
2017-09-24T01:30:38.302Z,72.90
2017-09-24T01:33:05.361Z,72.90
2017-09-24T01:35:31.629Z,72.80
2017-09-24T01:37:57.918Z,72.40
2017-09-24T01:40:24.217Z,72.50
2017-09-24T01:42:51.417Z,72.70
2017-09-24T01:45:19.476Z,73.40
2017-09-24T01:47:46.160Z,73.40
2017-09-24T01:50:13.455Z,73.60
2017-09-24T01:52:39.798Z,75.20
2017-09-24T01:55:06.941Z,75.70
2017-09-24T01:57:33.555Z,74.70
2017-09-24T02:00:01.252Z,73.40
2017-09-24T02:02:27.550Z,73.30
2017-09-24T02:04:54.442Z,73.00
2017-09-24T02:07:21.803Z,74.20
2017-09-24T02:09:48.027Z,74.90
2017-09-24T02:12:14.221Z,74.30
2017-09-24T02:14:40.660Z,74.10
2017-09-24T02:17:06.887Z,75.00
2017-09-24T02:19:33.721Z,74.80
2017-09-24T02:22:00.092Z,74.10
2017-09-24T02:24:27.488Z,73.50
2017-09-24T02:26:53.875Z,73.50
2017-09-24T02:29:20.088Z,73.40
2017-09-24T02:31:47.226Z,73.70
2017-09-24T02:34:13.660Z,73.60
2017-09-24T02:36:40.451Z,73.30
2017-09-24T02:39:07.430Z,73.80
2017-09-24T02:41:33.820Z,73.80
2017-09-24T02:44:01.164Z,73.60
2017-09-24T02:46:27.784Z,73.40
2017-09-24T02:48:55.139Z,73.30
2017-09-24T02:51:23.417Z,73.70
2017-09-24T02:53:49.919Z,73.60
2017-09-24T02:56:16.356Z,74.00
2017-09-24T02:58:43.401Z,74.60
2017-09-24T03:01:10.285Z,74.60
2017-09-24T03:03:36.497Z,74.60
2017-09-24T03:06:03.741Z,75.20
2017-09-24T03:08:30.192Z,75.10
2017-09-24T03:10:57.050Z,75.70
2017-09-24T03:13:24.922Z,75.80
2017-09-24T03:15:51.879Z,75.80
2017-09-24T03:18:19.349Z,75.50
2017-09-24T03:20:45.536Z,75.50
2017-09-24T03:23:12.108Z,75.90
2017-09-24T03:25:39.060Z,75.90
2017-09-24T03:28:05.394Z,75.80
2017-09-24T03:30:32.143Z,76.50
2017-09-24T03:32:58.834Z,75.90
2017-09-24T03:35:25.752Z,75.70
2017-09-24T03:37:52.488Z,75.50
2017-09-24T03:40:21.272Z,75.10
2017-09-24T03:42:49.041Z,75.00
2017-09-24T03:45:16.643Z,74.90
2017-09-24T03:47:42.861Z,74.90
2017-09-24T03:50:09.103Z,75.40
2017-09-24T03:52:36.643Z,76.00
2017-09-24T03:55:02.865Z,75.80
2017-09-24T03:57:30.203Z,75.40
2017-09-24T03:59:58.200Z,75.10
2017-09-24T04:02:24.967Z,75.10
2017-09-24T04:04:51.673Z,74.80
2017-09-24T04:07:18.961Z,74.80
2017-09-24T04:09:46.570Z,74.50
2017-09-24T04:12:13.056Z,75.10
2017-09-24T04:14:40.784Z,74.60
2017-09-24T04:17:07.591Z,74.50
2017-09-24T04:19:33.828Z,74.40
2017-09-24T04:22:01.381Z,74.50
2017-09-24T04:24:27.600Z,74.60
2017-09-24T04:26:54.299Z,74.90
2017-09-24T04:29:21.892Z,75.70
2017-09-24T04:31:48.564Z,75.70
2017-09-24T04:34:16.714Z,76.20
2017-09-24T04:36:42.915Z,75.80
2017-09-24T04:39:10.025Z,75.30
2017-09-24T04:41:36.300Z,75.50
2017-09-24T04:44:02.565Z,75.10
2017-09-24T04:46:29.353Z,75.10
2017-09-24T04:48:56.538Z,75.60
2017-09-24T04:51:23.589Z,75.40
2017-09-24T04:53:49.801Z,75.40
2017-09-24T04:56:16.076Z,76.00
2017-09-24T04:58:42.978Z,76.30
2017-09-24T05:01:10.957Z,76.20
2017-09-24T05:03:37.703Z,76.20
2017-09-24T05:06:03.915Z,76.60
2017-09-24T05:08:30.140Z,76.30
2017-09-24T05:10:56.680Z,76.00
2017-09-24T05:13:23.011Z,75.90
2017-09-24T05:15:49.606Z,75.80
2017-09-24T05:18:16.559Z,76.20
2017-09-24T05:20:44.084Z,76.20
2017-09-24T05:23:11.110Z,76.20
2017-09-24T05:25:38.241Z,75.60
2017-09-24T05:28:04.492Z,75.90
2017-09-24T05:30:31.031Z,76.20
2017-09-24T05:32:57.330Z,76.30
2017-09-24T05:35:23.691Z,76.40
2017-09-24T05:37:49.930Z,76.50
2017-09-24T05:40:16.143Z,76.50
2017-09-24T05:42:42.379Z,76.60
2017-09-24T05:45:08.689Z,76.90
2017-09-24T05:47:35.631Z,76.90
2017-09-24T05:50:01.922Z,76.80
2017-09-24T05:52:28.852Z,77.70
2017-09-24T05:54:55.853Z,77.30
2017-09-24T05:57:23.606Z,77.30
2017-09-24T05:59:50.894Z,77.00
2017-09-24T06:02:17.869Z,76.80
2017-09-24T06:04:45.784Z,76.50
2017-09-24T06:07:12.123Z,76.50
2017-09-24T06:09:38.400Z,77.20
2017-09-24T06:12:05.397Z,77.10
2017-09-24T06:14:31.636Z,77.00
2017-09-24T06:16:57.831Z,76.80
2017-09-24T06:19:24.180Z,76.90
2017-09-24T06:21:50.975Z,76.80
2017-09-24T06:24:18.542Z,76.40
2017-09-24T06:26:44.772Z,76.40
2017-09-24T06:29:11.460Z,76.50
2017-09-24T06:31:37.884Z,76.50
2017-09-24T06:34:05.595Z,76.10
2017-09-24T06:36:33.778Z,75.90
2017-09-24T06:39:00.133Z,75.90
2017-09-24T06:41:26.389Z,75.90
2017-09-24T06:43:52.664Z,76.50
2017-09-24T06:46:19.425Z,76.40
2017-09-24T06:48:45.901Z,76.70
2017-09-24T06:51:12.377Z,77.20
2017-09-24T06:53:39.744Z,76.90
2017-09-24T06:56:05.969Z,75.40
2017-09-24T06:58:32.326Z,74.80
2017-09-24T07:00:58.740Z,73.90
2017-09-24T07:03:24.992Z,74.40
2017-09-24T07:05:51.249Z,74.00
2017-09-24T07:08:22.090Z,74.20
2017-09-24T07:10:49.158Z,74.10
2017-09-24T07:13:15.528Z,74.30
2017-09-24T07:15:41.902Z,75.10
2017-09-24T07:18:08.654Z,75.60
2017-09-24T07:20:42.837Z,74.30
2017-09-24T07:23:09.679Z,74.30
2017-09-24T07:25:37.264Z,73.90
2017-09-24T07:28:04.229Z,74.00
2017-09-24T07:30:31.046Z,74.00
2017-09-24T07:32:58.161Z,71.70
2017-09-24T07:35:25.792Z,69.90
2017-09-24T07:37:52.143Z,69.80
2017-09-24T07:40:19.033Z,69.40
2017-09-24T07:42:46.007Z,69.20
2017-09-24T07:45:12.277Z,69.20
2017-09-24T07:47:38.522Z,68.00
2017-09-24T07:50:04.950Z,67.50
2017-09-24T07:52:31.168Z,63.20
2017-09-24T07:54:57.416Z,65.50
2017-09-24T07:57:24.807Z,59.00
2017-09-24T07:59:52.321Z,58.80
2017-09-24T08:02:18.925Z,58.00
2017-09-24T08:04:46.063Z,56.10
2017-09-24T08:07:12.952Z,56.10
2017-09-24T08:09:40.245Z,55.60
2017-09-24T08:12:06.508Z,55.70
2017-09-24T08:14:32.980Z,56.20
2017-09-24T08:17:00.469Z,55.50
2017-09-24T08:19:26.685Z,55.50
2017-09-24T08:21:54.497Z,55.90
2017-09-24T08:24:20.728Z,55.50
2017-09-24T08:26:47.277Z,53.80
2017-09-24T08:29:13.855Z,54.90
2017-09-24T08:31:41.721Z,53.80
2017-09-24T08:34:07.951Z,53.70
2017-09-24T08:36:34.485Z,53.70
2017-09-24T08:39:02.201Z,52.90
2017-09-24T08:41:28.944Z,52.90
2017-09-24T08:43:55.165Z,53.20
2017-09-24T08:46:21.857Z,54.70
2017-09-24T08:48:48.296Z,52.90
2017-09-24T08:51:15.352Z,54.50
2017-09-24T08:53:41.627Z,54.50
2017-09-24T08:56:09.174Z,54.10
2017-09-24T08:58:35.443Z,54.10
2017-09-24T09:01:01.884Z,54.70
2017-09-24T09:03:28.378Z,53.20
2017-09-24T09:05:54.817Z,53.60
2017-09-24T09:08:21.912Z,55.00
2017-09-24T09:10:48.147Z,55.00
2017-09-24T09:13:14.481Z,54.00
2017-09-24T09:15:41.289Z,54.60
2017-09-24T09:18:08.256Z,54.60
2017-09-24T09:20:34.615Z,53.30
2017-09-24T09:23:01.392Z,53.60
2017-09-24T09:25:27.764Z,52.40
2017-09-24T09:27:54.383Z,53.20
2017-09-24T09:30:20.632Z,52.20
2017-09-24T09:32:48.112Z,52.30
2017-09-24T09:35:14.465Z,51.60
2017-09-24T09:37:41.628Z,50.70
2017-09-24T09:40:10.438Z,50.70
2017-09-24T09:42:37.731Z,51.50
2017-09-24T09:45:16.234Z,52.40
2017-09-24T09:47:43.066Z,52.00
2017-09-24T09:50:10.242Z,52.60
2017-09-24T09:52:36.649Z,52.40
2017-09-24T09:55:02.903Z,52.00
2017-09-24T09:57:29.819Z,52.00
2017-09-24T09:59:57.061Z,53.00
2017-09-24T10:02:24.420Z,53.00
2017-09-24T10:04:52.062Z,49.90
2017-09-24T10:07:30.431Z,49.80
2017-09-24T10:10:16.600Z,51.10
2017-09-24T10:12:44.119Z,50.00
2017-09-24T10:15:10.761Z,50.30
2017-09-24T10:17:38.701Z,50.60
2017-09-24T10:20:05.688Z,51.70
2017-09-24T10:22:32.461Z,50.90
2017-09-24T10:24:58.769Z,49.40
2017-09-24T10:27:26.243Z,50.30
2017-09-24T10:30:05.622Z,49.90
2017-09-24T10:32:32.350Z,49.90
2017-09-24T10:34:59.494Z,50.50
2017-09-24T10:37:26.119Z,50.50
2017-09-24T10:39:52.352Z,50.80
2017-09-24T10:42:19.101Z,50.80
2017-09-24T10:44:45.842Z,51.20
2017-09-24T10:47:12.632Z,51.00
2017-09-24T10:49:39.812Z,48.80
2017-09-24T10:52:06.818Z,48.80
2017-09-24T10:54:33.714Z,48.80
2017-09-24T10:56:59.953Z,47.10
2017-09-24T10:59:27.227Z,47.10
2017-09-24T11:01:54.438Z,46.00
2017-09-24T11:04:21.649Z,45.00
2017-09-24T11:06:49.119Z,45.80
2017-09-24T11:09:17.303Z,47.00
2017-09-24T11:11:43.926Z,47.00
2017-09-24T11:14:11.634Z,45.10
2017-09-24T11:16:38.597Z,44.40
2017-09-24T11:19:05.878Z,45.20
2017-09-24T11:21:32.102Z,45.10
2017-09-24T11:23:58.496Z,45.70
2017-09-24T11:26:25.450Z,44.30
2017-09-24T11:28:52.631Z,44.30
2017-09-24T11:31:18.865Z,44.20
2017-09-24T11:33:45.130Z,44.80
2017-09-24T11:36:11.361Z,44.80
2017-09-24T11:38:37.911Z,44.60
2017-09-24T11:41:04.906Z,44.10
2017-09-24T11:43:31.345Z,44.10
2017-09-24T11:45:57.589Z,44.60
2017-09-24T11:48:24.972Z,45.70
2017-09-24T11:50:52.219Z,45.40
2017-09-24T11:53:20.395Z,43.60
2017-09-24T11:55:47.015Z,43.40
2017-09-24T11:58:13.453Z,43.60
2017-09-24T12:00:40.787Z,43.50
2017-09-24T12:03:07.053Z,43.40
2017-09-24T12:05:35.021Z,43.30
2017-09-24T12:08:02.922Z,43.20
2017-09-24T12:10:30.956Z,42.50
2017-09-24T12:12:58.343Z,43.10
2017-09-24T12:15:25.692Z,42.90
2017-09-24T12:17:51.922Z,42.80
2017-09-24T12:20:18.241Z,43.20
2017-09-24T12:22:45.197Z,43.00
2017-09-24T12:25:12.610Z,43.00
2017-09-24T12:27:39.748Z,42.20
2017-09-24T12:30:06.879Z,41.60
2017-09-24T12:32:33.073Z,41.50
2017-09-24T12:34:59.570Z,41.30
2017-09-24T12:37:27.427Z,41.90
2017-09-24T12:39:55.377Z,40.30
2017-09-24T12:42:21.596Z,40.20
2017-09-24T12:44:49.326Z,40.80
2017-09-24T12:47:16.432Z,38.30
2017-09-24T12:49:42.651Z,38.30
2017-09-24T12:52:09.423Z,39.10
2017-09-24T12:54:37.398Z,39.00
2017-09-24T12:57:04.464Z,40.70
2017-09-24T12:59:31.142Z,40.10
2017-09-24T13:01:58.500Z,38.40
2017-09-24T13:04:24.698Z,39.40
2017-09-24T13:06:50.899Z,38.60
2017-09-24T13:09:19.201Z,40.80
2017-09-24T13:11:45.421Z,40.80
2017-09-24T13:14:12.993Z,40.90
2017-09-24T13:16:40.634Z,41.40
2017-09-24T13:19:06.867Z,41.40
2017-09-24T13:21:33.590Z,41.40
2017-09-24T13:24:00.597Z,41.90
2017-09-24T13:26:27.187Z,41.90
2017-09-24T13:28:55.169Z,42.90
2017-09-24T13:31:22.071Z,42.90
2017-09-24T13:33:48.998Z,43.20
2017-09-24T13:36:15.433Z,43.50
2017-09-24T13:38:43.415Z,44.70
2017-09-24T13:41:10.920Z,44.00
2017-09-24T13:43:37.718Z,44.00
2017-09-24T13:46:04.726Z,44.70
2017-09-24T13:48:31.180Z,44.70
2017-09-24T13:50:57.428Z,44.20
2017-09-24T13:53:24.432Z,44.80
2017-09-24T13:55:52.714Z,44.70
2017-09-24T13:58:19.041Z,44.00
2017-09-24T14:00:46.544Z,43.60
2017-09-24T14:03:12.787Z,42.90
2017-09-24T14:05:39.399Z,43.50
2017-09-24T14:08:06.613Z,43.60
2017-09-24T14:10:34.293Z,44.30
2017-09-24T14:13:01.511Z,44.30
2017-09-24T14:15:28.118Z,44.00
2017-09-24T14:17:55.996Z,44.30
2017-09-24T14:20:23.680Z,44.30
2017-09-24T14:22:50.081Z,44.50
2017-09-24T14:25:16.349Z,43.70
2017-09-24T14:27:44.216Z,44.00
2017-09-24T14:30:11.130Z,43.50
2017-09-24T14:32:37.998Z,42.50
2017-09-24T14:35:05.763Z,41.60
2017-09-24T14:37:33.486Z,41.50
2017-09-24T14:40:00.812Z,41.70
2017-09-24T14:42:27.801Z,41.50
2017-09-24T14:44:54.107Z,41.50
2017-09-24T14:47:21.733Z,42.10
2017-09-24T14:49:48.545Z,42.10
2017-09-24T14:52:15.075Z,41.70
2017-09-24T14:54:43.455Z,40.50
2017-09-24T14:57:12.003Z,40.60
2017-09-24T14:59:39.966Z,39.00
2017-09-24T15:02:06.935Z,39.10
2017-09-24T15:04:34.205Z,39.10
2017-09-24T15:07:01.687Z,37.80
2017-09-24T15:09:28.728Z,38.20
2017-09-24T15:11:55.016Z,38.10
2017-09-24T15:14:22.554Z,37.90
2017-09-24T15:16:51.369Z,38.70
2017-09-24T15:19:17.977Z,38.60
2017-09-24T15:21:45.147Z,38.50
2017-09-24T15:24:12.867Z,39.00
2017-09-24T15:26:39.617Z,38.90
2017-09-24T15:29:07.203Z,38.90
2017-09-24T15:31:34.384Z,39.40
2017-09-24T15:34:02.569Z,40.20
2017-09-24T15:36:28.928Z,40.20
2017-09-24T15:38:57.178Z,40.20
2017-09-24T15:41:24.188Z,40.30
2017-09-24T15:43:51.007Z,40.30
2017-09-24T15:46:17.987Z,40.10
2017-09-24T15:48:44.856Z,40.00
2017-09-24T15:51:12.020Z,39.90
2017-09-24T15:53:38.390Z,39.80
2017-09-24T15:56:05.089Z,40.30
2017-09-24T15:58:31.495Z,40.60
2017-09-24T16:00:58.842Z,41.30
2017-09-24T16:03:25.538Z,41.30
2017-09-24T16:05:53.048Z,41.30
2017-09-24T16:08:21.107Z,41.40
2017-09-24T16:10:48.405Z,41.80
2017-09-24T16:13:16.480Z,42.60
2017-09-24T16:15:43.234Z,42.50
2017-09-24T16:18:10.186Z,43.40
2017-09-24T16:20:37.573Z,43.70
2017-09-24T16:23:04.438Z,43.70
2017-09-24T16:25:31.459Z,43.90
2017-09-24T16:27:58.037Z,43.50
2017-09-24T16:30:25.262Z,44.20
2017-09-24T16:32:51.984Z,44.10
2017-09-24T16:35:19.151Z,44.60
2017-09-24T16:37:45.594Z,44.50
2017-09-24T16:40:14.089Z,45.20
2017-09-24T16:42:41.255Z,46.30
2017-09-24T16:45:07.462Z,46.40
2017-09-24T16:47:34.265Z,46.10
2017-09-24T16:50:00.553Z,45.60
2017-09-24T16:52:26.751Z,47.20
2017-09-24T16:54:54.340Z,48.10
2017-09-24T16:57:21.269Z,48.10
2017-09-24T16:59:48.755Z,48.80
2017-09-24T17:02:15.911Z,48.00
2017-09-24T17:04:43.558Z,48.30
2017-09-24T17:07:10.959Z,49.70
2017-09-24T17:09:39.131Z,49.60
2017-09-24T17:12:05.987Z,50.30
2017-09-24T17:14:32.937Z,49.90
2017-09-24T17:17:00.549Z,50.20
2017-09-24T17:19:28.238Z,51.20
2017-09-24T17:21:55.486Z,51.20
2017-09-24T17:24:21.744Z,51.20
2017-09-24T17:26:48.516Z,52.30
2017-09-24T17:29:15.487Z,52.40
2017-09-24T17:31:41.694Z,51.80
2017-09-24T17:34:08.811Z,53.00
2017-09-24T17:36:35.034Z,52.90
2017-09-24T17:39:01.359Z,52.50
2017-09-24T17:41:28.105Z,52.30
2017-09-24T17:43:55.468Z,51.60
2017-09-24T17:46:22.475Z,52.00
2017-09-24T17:48:48.797Z,52.00
2017-09-24T17:51:15.601Z,54.10
2017-09-24T17:53:42.131Z,52.90
2017-09-24T17:56:10.303Z,53.30
2017-09-24T17:58:36.615Z,52.20
2017-09-24T18:01:03.122Z,51.90
2017-09-24T18:03:29.375Z,53.50
2017-09-24T18:05:56.198Z,52.50
2017-09-24T18:08:22.690Z,52.00
2017-09-24T18:10:50.299Z,52.30
2017-09-24T18:13:18.052Z,52.30
2017-09-24T18:15:44.809Z,53.00
2017-09-24T18:18:13.357Z,55.20
2017-09-24T18:20:39.615Z,55.00
2017-09-24T18:23:05.840Z,53.70
2017-09-24T18:25:32.513Z,53.70
2017-09-24T18:28:01.051Z,54.90
2017-09-24T18:30:28.003Z,54.90
2017-09-24T18:32:55.711Z,56.60
2017-09-24T18:35:24.503Z,56.70
2017-09-24T18:37:52.046Z,57.80
2017-09-24T18:40:18.521Z,57.70
2017-09-24T18:42:45.585Z,58.40
2017-09-24T18:45:11.840Z,58.30
2017-09-24T18:47:38.344Z,57.90
2017-09-24T18:50:05.526Z,58.20
2017-09-24T18:52:31.771Z,58.10
2017-09-24T18:54:57.997Z,59.10
2017-09-24T18:57:24.244Z,58.30
2017-09-24T18:59:52.157Z,58.00
2017-09-24T19:02:18.524Z,57.90
2017-09-24T19:04:46.357Z,58.80
2017-09-24T19:07:13.126Z,58.60
2017-09-24T19:09:41.350Z,56.80
2017-09-24T19:12:08.168Z,56.80
2017-09-24T19:14:35.673Z,57.10
2017-09-24T19:17:01.943Z,57.10
2017-09-24T19:19:29.100Z,57.70
2017-09-24T19:21:56.916Z,57.60
2017-09-24T19:24:23.434Z,57.60
2017-09-24T19:26:49.849Z,57.50
2017-09-24T19:29:17.352Z,59.10
2017-09-24T19:31:44.297Z,58.60
2017-09-24T19:34:11.446Z,57.70
2017-09-24T19:36:38.619Z,57.70
2017-09-24T19:39:05.149Z,58.20
2017-09-24T19:41:31.640Z,58.40
2017-09-24T19:43:58.790Z,57.80
2017-09-24T19:46:25.043Z,57.90
2017-09-24T19:48:52.005Z,58.10
2017-09-24T19:51:18.801Z,57.80
2017-09-24T19:53:45.336Z,58.20
2017-09-24T19:56:12.425Z,59.60
2017-09-24T19:58:40.043Z,59.40
2017-09-24T20:01:06.296Z,58.70
2017-09-24T20:03:33.474Z,60.00
2017-09-24T20:06:00.449Z,58.60
2017-09-24T20:08:27.171Z,58.50
2017-09-24T20:10:54.132Z,58.30
2017-09-24T20:13:21.019Z,58.30
2017-09-24T20:15:49.189Z,60.30
2017-09-24T20:18:16.105Z,59.60
2017-09-24T20:20:43.041Z,59.00
2017-09-24T20:23:10.244Z,61.60
2017-09-24T20:25:36.514Z,60.00
2017-09-24T20:28:04.019Z,59.50
2017-09-24T20:30:30.424Z,60.10
2017-09-24T20:32:58.010Z,61.30
2017-09-24T20:35:24.263Z,61.20
2017-09-24T20:37:50.555Z,60.10
2017-09-24T20:40:17.314Z,60.50
2017-09-24T20:42:51.186Z,61.70
2017-09-24T20:45:17.521Z,63.80
2017-09-24T20:47:45.141Z,63.60
2017-09-24T20:50:12.053Z,61.00
2017-09-24T20:52:39.089Z,62.30
2017-09-24T20:55:05.597Z,62.20
2017-09-24T20:57:35.437Z,63.50
2017-09-24T21:00:03.147Z,63.20
2017-09-24T21:02:30.539Z,64.30
2017-09-24T21:04:57.071Z,64.10
2017-09-24T21:07:23.909Z,63.20
2017-09-24T21:09:53.294Z,62.00
2017-09-24T21:12:20.108Z,62.10
2017-09-24T21:14:46.877Z,63.90
2017-09-24T21:17:14.146Z,63.50
2017-09-24T21:19:43.174Z,64.20
2017-09-24T21:22:10.255Z,63.30
2017-09-24T21:24:37.673Z,63.30
2017-09-24T21:27:06.045Z,63.30
2017-09-24T21:29:32.808Z,63.30
2017-09-24T21:31:59.443Z,62.40
2017-09-24T21:34:26.483Z,62.00
2017-09-24T21:36:53.073Z,62.00
2017-09-24T21:39:20.076Z,61.90
2017-09-24T21:41:48.144Z,61.80
2017-09-24T21:44:14.910Z,61.80
2017-09-24T21:46:41.880Z,61.80
2017-09-24T21:49:09.014Z,61.80
2017-09-24T21:51:35.534Z,62.40
2017-09-24T21:54:03.156Z,63.20
2017-09-24T21:56:29.696Z,63.10
2017-09-24T21:58:55.895Z,65.80
2017-09-24T22:01:22.089Z,67.60
2017-09-24T22:03:49.604Z,68.20
2017-09-24T22:06:16.189Z,68.10
2017-09-24T22:08:43.188Z,68.20
2017-09-24T22:11:09.844Z,67.20
2017-09-24T22:13:37.478Z,67.60
2017-09-24T22:16:04.693Z,67.60
2017-09-24T22:18:32.020Z,67.50
2017-09-24T22:20:59.572Z,69.00
2017-09-24T22:23:26.263Z,68.70
2017-09-24T22:25:52.499Z,70.40
2017-09-24T22:28:18.734Z,69.10
2017-09-24T22:30:45.215Z,68.90
2017-09-24T22:33:12.708Z,70.80
2017-09-24T22:35:38.921Z,70.80
2017-09-24T22:38:06.029Z,71.80
2017-09-24T22:40:32.335Z,70.00
2017-09-24T22:42:59.051Z,68.40
2017-09-24T22:45:25.753Z,67.10
2017-09-24T22:47:53.384Z,68.20
2017-09-24T22:50:19.598Z,68.20
2017-09-24T22:52:46.713Z,67.00
2017-09-24T22:55:14.286Z,65.90
2017-09-24T22:57:41.031Z,65.90
2017-09-24T23:00:07.768Z,65.40
2017-09-24T23:02:33.969Z,65.80
2017-09-24T23:05:00.925Z,65.70
2017-09-24T23:07:27.514Z,65.70
2017-09-24T23:09:54.202Z,65.40
2017-09-24T23:12:20.524Z,65.50
2017-09-24T23:14:47.300Z,66.70
2017-09-24T23:17:14.068Z,66.00
2017-09-24T23:19:40.583Z,67.30
2017-09-24T23:22:07.806Z,67.10
2017-09-24T23:24:34.593Z,68.70
2017-09-24T23:27:00.889Z,69.60
2017-09-24T23:29:27.603Z,69.60
2017-09-24T23:31:54.051Z,70.50
2017-09-24T23:34:21.060Z,68.70
2017-09-24T23:36:48.981Z,69.70
2017-09-24T23:39:15.218Z,69.50
2017-09-24T23:41:41.977Z,68.80
2017-09-24T23:44:09.048Z,70.40
2017-09-24T23:46:36.006Z,69.10
2017-09-24T23:49:02.459Z,69.00
2017-09-24T23:51:28.683Z,69.50
2017-09-24T23:53:55.994Z,68.90
2017-09-24T23:56:23.021Z,68.40
2017-09-24T23:58:49.812Z,68.30
